createdAt,value
2018-12-03T00:00:50.679Z,8.33
2018-12-03T00:03:19.979Z,8.23
2018-12-03T00:05:48.872Z,9.30
2018-12-03T00:08:17.761Z,6.80
2018-12-03T00:10:46.755Z,7.00
2018-12-03T00:13:15.665Z,7.47
2018-12-03T00:15:44.514Z,7.93
2018-12-03T00:18:13.431Z,7.33
2018-12-03T00:20:42.984Z,7.97
2018-12-03T00:23:12.991Z,10.58
2018-12-03T00:25:42.888Z,8.17
2018-12-03T00:28:11.701Z,7.77
2018-12-03T00:30:40.750Z,9.80
2018-12-03T00:33:09.642Z,9.60
2018-12-03T00:35:38.531Z,11.30
2018-12-03T00:38:07.798Z,14.93
2018-12-03T00:40:36.722Z,15.97
2018-12-03T00:43:05.987Z,14.93
2018-12-03T00:45:34.918Z,15.67
2018-12-03T00:48:03.907Z,11.83
2018-12-03T00:50:32.772Z,12.77
2018-12-03T00:53:01.834Z,15.50
2018-12-03T00:55:30.681Z,14.67
2018-12-03T00:57:59.569Z,17.07
2018-12-03T01:00:29.025Z,15.47
2018-12-03T01:02:58.008Z,15.83
2018-12-03T01:05:26.913Z,16.67
2018-12-03T01:07:56.224Z,16.50
2018-12-03T01:10:25.055Z,15.88
2018-12-03T01:12:53.850Z,16.83
2018-12-03T01:15:22.716Z,19.00
2018-12-03T01:17:51.480Z,17.23
2018-12-03T01:20:20.269Z,17.17
2018-12-03T01:22:49.286Z,17.93
2018-12-03T01:25:18.028Z,17.47
2018-12-03T01:27:46.814Z,18.25
2018-12-03T01:30:15.783Z,17.60
2018-12-03T01:32:44.649Z,17.10
2018-12-03T01:35:13.514Z,18.03
2018-12-03T01:37:43.123Z,17.80
2018-12-03T01:45:42.130Z,16.17
2018-12-03T01:48:12.308Z,15.47
2018-12-03T01:50:42.307Z,17.97
2018-12-03T01:53:12.539Z,16.23
2018-12-03T01:58:52.123Z,21.13
2018-12-03T02:01:22.140Z,18.07
2018-12-03T02:03:52.174Z,17.20
2018-12-03T02:06:41.067Z,17.50
2018-12-03T02:09:11.209Z,18.07
2018-12-03T02:11:41.202Z,17.40
2018-12-03T02:19:55.863Z,17.77
2018-12-03T02:22:25.886Z,19.97
2018-12-03T02:24:55.880Z,18.05
2018-12-03T02:27:26.077Z,16.40
2018-12-03T02:29:56.135Z,17.62
2018-12-03T02:32:26.157Z,16.70
2018-12-03T02:34:56.337Z,17.50
2018-12-03T02:37:26.405Z,16.73
2018-12-03T02:39:56.420Z,17.80
2018-12-03T02:42:45.298Z,16.87
2018-12-03T02:45:15.837Z,15.47
2018-12-03T02:47:45.843Z,15.80
2018-12-03T02:50:16.427Z,14.47
2018-12-03T02:52:46.444Z,17.47
2018-12-03T02:58:18.940Z,15.50
2018-12-03T03:00:48.957Z,16.70
2018-12-03T03:03:18.931Z,17.87
2018-12-03T03:05:49.707Z,15.90
2018-12-03T03:08:19.725Z,17.37
2018-12-03T03:10:49.745Z,16.65
2018-12-03T03:13:19.865Z,15.85
2018-12-03T03:15:49.901Z,15.20
2018-12-03T03:18:19.909Z,15.47
2018-12-03T03:20:50.120Z,20.20
2018-12-03T03:23:20.140Z,18.37
2018-12-03T03:25:50.161Z,18.15
2018-12-03T03:28:20.309Z,21.37
2018-12-03T03:30:50.430Z,17.42
2018-12-03T03:36:34.428Z,17.70
2018-12-03T03:39:15.986Z,20.83
2018-12-03T03:41:46.215Z,20.37
2018-12-03T03:44:16.227Z,24.40
2018-12-03T03:46:46.313Z,18.57
2018-12-03T03:49:16.365Z,17.67
2018-12-03T03:51:46.381Z,16.30
2018-12-03T03:54:16.402Z,20.67
2018-12-03T03:56:46.443Z,17.37
2018-12-03T03:59:16.496Z,15.70
2018-12-03T04:01:46.532Z,15.37
2018-12-03T04:07:19.067Z,17.37
2018-12-03T04:09:49.029Z,15.93
2018-12-03T04:12:19.096Z,18.33
2018-12-03T04:14:49.228Z,20.73
2018-12-03T04:17:19.343Z,18.00
2018-12-03T04:19:49.391Z,17.93
2018-12-03T04:22:19.554Z,17.90
2018-12-03T04:24:49.640Z,18.13
2018-12-03T04:27:19.696Z,15.75
2018-12-03T04:29:49.917Z,16.80
2018-12-03T04:32:20.004Z,16.67
2018-12-03T04:34:50.006Z,15.88
2018-12-03T04:37:20.783Z,15.90
2018-12-03T04:39:51.997Z,16.47
2018-12-03T04:42:22.082Z,15.60
2018-12-03T04:44:52.292Z,15.17
2018-12-03T04:47:22.316Z,15.30
2018-12-03T04:49:52.326Z,14.97
2018-12-03T04:52:22.449Z,14.10
2018-12-03T04:54:52.592Z,13.33
2018-12-03T04:57:22.654Z,13.88
2018-12-03T04:59:52.948Z,13.00
2018-12-03T05:02:22.997Z,13.48
2018-12-03T05:04:53.064Z,14.80
2018-12-03T05:07:23.204Z,14.15
2018-12-03T05:09:53.281Z,15.10
2018-12-03T05:12:23.298Z,14.38
2018-12-03T05:14:53.464Z,14.37
2018-12-03T05:17:23.559Z,15.13
2018-12-03T05:19:53.683Z,14.70
2018-12-03T05:22:23.877Z,16.27
2018-12-03T05:24:53.910Z,16.63
2018-12-03T05:27:23.943Z,15.72
2018-12-03T05:29:54.038Z,14.70
2018-12-03T05:32:24.042Z,16.37
2018-12-03T05:34:54.161Z,15.70
2018-12-03T05:37:24.371Z,16.40
2018-12-03T05:39:54.450Z,15.80
2018-12-03T05:42:24.576Z,15.60
2018-12-03T05:44:54.755Z,14.40
2018-12-03T05:47:24.833Z,14.80
2018-12-03T05:49:54.887Z,15.40
2018-12-03T05:52:25.010Z,14.03
2018-12-03T05:54:55.064Z,15.35
2018-12-03T05:57:25.049Z,14.85
2018-12-03T05:59:55.250Z,15.53
2018-12-03T06:02:25.281Z,15.33
2018-12-03T06:04:55.302Z,13.32
2018-12-03T06:07:25.583Z,15.10
2018-12-03T06:09:55.647Z,13.20
2018-12-03T06:12:25.653Z,14.20
2018-12-03T06:14:55.811Z,15.60
2018-12-03T06:17:25.880Z,12.82
2018-12-03T06:19:55.861Z,14.20
2018-12-03T06:22:25.998Z,13.23
2018-12-03T06:24:56.054Z,14.87
2018-12-03T06:27:44.939Z,14.53
2018-12-03T06:30:16.919Z,14.83
2018-12-03T06:32:46.933Z,14.43
2018-12-03T06:35:17.994Z,15.47
2018-12-03T06:37:48.420Z,15.13
2018-12-03T06:40:37.380Z,14.10
2018-12-03T06:43:07.977Z,14.37
2018-12-03T06:45:56.994Z,13.60
2018-12-03T06:48:27.126Z,13.38
2018-12-03T06:50:57.147Z,12.40
2018-12-03T06:53:27.264Z,17.42
2018-12-03T06:55:57.317Z,14.00
2018-12-03T06:58:27.385Z,13.73
2018-12-03T07:00:57.581Z,13.10
2018-12-03T07:03:27.584Z,13.35
2018-12-03T07:05:57.631Z,11.88
2018-12-03T07:11:09.675Z,11.80
2018-12-03T07:13:39.895Z,10.37
2018-12-03T07:16:09.908Z,10.23
2018-12-03T07:18:39.963Z,9.30
2018-12-03T07:21:10.122Z,10.90
2018-12-03T07:23:40.180Z,11.63
2018-12-03T07:26:10.245Z,10.73
2018-12-03T07:28:40.370Z,9.43
2018-12-03T07:31:10.418Z,9.97
2018-12-03T07:33:40.424Z,9.73
2018-12-03T07:36:10.487Z,11.87
2018-12-03T07:38:40.558Z,9.70
2018-12-03T07:41:29.549Z,9.40
2018-12-03T07:46:48.910Z,7.23
2018-12-03T07:49:19.000Z,11.17
2018-12-03T07:51:49.059Z,11.18
2018-12-03T07:54:19.320Z,9.77
2018-12-03T07:56:49.390Z,17.80
2018-12-03T07:59:19.433Z,10.88
2018-12-03T08:01:49.732Z,9.47
2018-12-03T08:04:38.601Z,11.30
2018-12-03T08:07:08.781Z,11.10
2018-12-03T08:09:57.641Z,11.60
2018-12-03T08:12:27.961Z,10.97
2018-12-03T08:14:58.011Z,7.23
2018-12-03T08:17:28.038Z,11.60
2018-12-03T08:19:58.212Z,11.68
2018-12-03T08:22:28.293Z,13.57
2018-12-03T08:24:58.284Z,11.80
2018-12-03T08:27:28.382Z,11.50
2018-12-03T08:29:58.420Z,13.32
2018-12-03T08:32:28.440Z,14.87
2018-12-03T08:34:58.600Z,13.20
2018-12-03T08:40:29.427Z,10.47
2018-12-03T08:42:59.402Z,11.35
2018-12-03T08:45:29.524Z,13.80
2018-12-03T08:51:00.401Z,16.57
2018-12-03T08:53:30.774Z,15.70
2018-12-03T08:56:00.804Z,16.37
2018-12-03T08:58:30.823Z,12.68
2018-12-03T09:03:42.556Z,13.70
2018-12-03T09:06:21.114Z,13.53
2018-12-03T09:08:52.313Z,14.40
2018-12-03T09:11:23.599Z,12.80
2018-12-03T09:13:54.586Z,13.93
2018-12-03T09:16:24.871Z,18.27
2018-12-03T09:18:54.921Z,15.80
2018-12-03T09:21:25.612Z,14.98
2018-12-03T09:26:50.678Z,13.50
2018-12-03T09:29:20.933Z,11.85
2018-12-03T09:31:51.673Z,16.77
2018-12-03T09:34:22.092Z,38.90
2018-12-03T09:36:53.016Z,30.67
2018-12-03T09:39:24.150Z,17.07
2018-12-03T09:41:54.229Z,16.90
2018-12-03T09:44:24.310Z,12.73
2018-12-03T09:46:54.308Z,15.07
2018-12-03T09:49:24.311Z,15.28
2018-12-03T09:54:36.585Z,19.27
2018-12-03T09:57:06.769Z,16.50
2018-12-03T09:59:36.808Z,20.23
2018-12-03T10:02:07.495Z,18.20
2018-12-03T10:04:39.970Z,14.83
2018-12-03T10:07:30.311Z,28.42
2018-12-03T10:10:11.785Z,21.35
2018-12-03T10:12:42.211Z,20.33
2018-12-03T10:18:15.388Z,15.18
2018-12-03T10:20:50.020Z,17.60
2018-12-03T10:23:20.212Z,17.87
2018-12-03T10:25:52.440Z,17.33
2018-12-03T10:28:22.520Z,18.80
2018-12-03T10:30:53.670Z,21.47
2018-12-03T10:36:26.541Z,20.73
2018-12-03T10:38:56.622Z,22.87
2018-12-03T10:41:45.667Z,16.93
2018-12-03T10:47:17.158Z,22.50
2018-12-03T10:49:47.170Z,16.60
2018-12-03T10:53:00.440Z,20.47
2018-12-03T10:55:30.595Z,23.73
2018-12-03T10:58:00.644Z,17.50
2018-12-03T11:00:49.601Z,25.30
2018-12-03T11:03:38.197Z,23.03
2018-12-03T11:06:20.656Z,18.27
2018-12-03T11:08:50.788Z,15.18
2018-12-03T11:11:39.851Z,17.83
2018-12-03T11:14:20.723Z,20.70
2018-12-03T11:17:02.211Z,19.57
2018-12-03T11:25:30.191Z,15.05
2018-12-03T11:28:02.003Z,13.37
2018-12-03T11:33:52.588Z,29.20
2018-12-03T11:37:00.190Z,20.83
2018-12-03T11:40:09.051Z,21.37
2018-12-03T11:45:40.994Z,20.83
2018-12-03T11:48:11.045Z,18.30
2018-12-03T11:50:41.060Z,24.10
2018-12-03T11:53:11.207Z,20.67
2018-12-03T11:55:41.265Z,20.10
2018-12-03T11:58:50.435Z,19.73
2018-12-03T12:01:20.531Z,19.60
2018-12-03T12:03:50.614Z,22.17
2018-12-03T12:11:43.633Z,23.47
2018-12-03T12:14:32.558Z,18.60
2018-12-03T12:17:02.721Z,16.90
2018-12-03T12:19:32.729Z,21.75
2018-12-03T12:24:45.403Z,18.52
2018-12-03T12:27:54.592Z,18.30
2018-12-03T12:30:24.902Z,19.97
2018-12-03T12:32:54.879Z,19.27
2018-12-03T12:38:07.185Z,25.40
2018-12-03T12:41:16.361Z,24.40
2018-12-03T12:43:46.468Z,18.60
2018-12-03T12:50:01.903Z,22.27
2018-12-03T12:52:31.923Z,18.67
2018-12-03T12:55:02.111Z,21.50
2018-12-03T12:57:32.261Z,18.17
2018-12-03T13:00:02.291Z,18.23
2018-12-03T13:02:32.374Z,16.33
2018-12-03T13:05:02.456Z,20.30
2018-12-03T13:07:32.484Z,21.53
2018-12-03T13:10:02.521Z,17.67
2018-12-03T13:12:32.687Z,18.90
2018-12-03T13:15:02.702Z,20.20
2018-12-03T13:17:33.871Z,22.47
2018-12-03T13:22:49.603Z,20.63
2018-12-03T13:28:03.054Z,21.37
2018-12-03T13:33:36.089Z,24.33
2018-12-03T13:41:57.929Z,27.40
2018-12-03T13:44:28.235Z,21.53
2018-12-03T13:47:17.145Z,22.57
2018-12-03T13:52:49.998Z,21.57
2018-12-03T13:55:38.840Z,24.30
2018-12-03T13:58:09.000Z,23.18
2018-12-03T14:00:39.033Z,20.68
2018-12-03T14:03:32.181Z,16.52
2018-12-03T14:06:39.775Z,21.73
2018-12-03T14:09:47.413Z,16.73
2018-12-03T14:12:55.074Z,19.23
2018-12-03T14:16:02.802Z,20.53
2018-12-03T14:18:36.387Z,18.10
2018-12-03T14:24:20.625Z,22.62
2018-12-03T14:26:50.881Z,18.87
2018-12-03T14:29:20.871Z,25.87
2018-12-03T14:31:50.837Z,22.80
2018-12-03T14:34:39.673Z,22.87
2018-12-03T14:37:09.730Z,19.57
2018-12-03T14:39:39.708Z,27.17
2018-12-03T14:42:09.933Z,27.20
2018-12-03T14:44:39.997Z,20.73
2018-12-03T14:47:10.061Z,23.63
2018-12-03T14:49:40.174Z,21.70
2018-12-03T14:52:10.689Z,23.23
2018-12-03T14:54:42.219Z,18.20
2018-12-03T14:57:12.376Z,23.77
2018-12-03T14:59:42.482Z,20.12
2018-12-03T15:02:12.501Z,24.80
2018-12-03T15:04:42.681Z,19.23
2018-12-03T15:07:14.140Z,19.12
2018-12-03T15:09:44.156Z,21.97
2018-12-03T15:12:14.352Z,22.23
2018-12-03T15:14:44.674Z,19.42
2018-12-03T15:17:14.777Z,19.82
2018-12-03T15:22:26.907Z,18.43
2018-12-03T15:24:57.117Z,21.57
2018-12-03T15:27:27.281Z,23.30
2018-12-03T15:29:57.359Z,19.57
2018-12-03T15:35:29.955Z,24.67
2018-12-03T15:38:00.414Z,25.63
2018-12-03T15:40:30.994Z,27.90
2018-12-03T15:43:40.638Z,24.37
2018-12-03T15:46:21.691Z,23.77
2018-12-03T15:48:52.075Z,24.35
2018-12-03T15:51:22.122Z,25.00
2018-12-03T15:53:52.156Z,22.52
2018-12-03T15:59:27.331Z,23.23
2018-12-03T16:01:57.305Z,26.40
2018-12-03T16:04:46.127Z,23.93
2018-12-03T16:07:16.410Z,23.50
2018-12-03T16:09:48.428Z,20.92
2018-12-03T16:12:18.446Z,22.43
2018-12-03T16:14:48.667Z,21.02
2018-12-03T16:20:11.342Z,23.45
2018-12-03T16:22:41.335Z,22.10
2018-12-03T16:25:11.362Z,22.13
2018-12-03T16:27:41.545Z,22.60
2018-12-03T16:30:17.341Z,22.67
2018-12-03T16:32:47.315Z,23.05
2018-12-03T16:35:56.519Z,22.40
2018-12-03T16:38:56.794Z,22.10
2018-12-03T16:44:48.203Z,21.00
2018-12-03T16:47:29.262Z,22.70
2018-12-03T16:53:01.716Z,22.37
2018-12-03T16:55:31.794Z,19.93
2018-12-03T16:58:01.854Z,23.40
2018-12-03T17:00:31.989Z,24.20
2018-12-03T17:03:02.054Z,25.30
2018-12-03T17:05:32.054Z,24.83
2018-12-03T17:08:41.351Z,26.77
2018-12-03T17:11:41.869Z,25.13
2018-12-03T17:14:11.902Z,26.07
2018-12-03T17:16:41.972Z,25.50
2018-12-03T17:19:11.962Z,22.23
2018-12-03T17:25:02.116Z,27.93
2018-12-03T17:30:14.243Z,22.00
2018-12-03T17:32:44.545Z,24.70
2018-12-03T17:38:24.005Z,26.30
2018-12-03T17:40:54.022Z,23.27
2018-12-03T17:43:24.055Z,24.53
2018-12-03T17:45:54.240Z,23.45
2018-12-03T17:48:24.247Z,26.10
2018-12-03T17:50:54.236Z,23.73
2018-12-03T17:53:24.281Z,24.52
2018-12-03T17:55:54.784Z,21.87
2018-12-03T17:58:24.756Z,26.03
2018-12-03T18:00:54.924Z,26.57
2018-12-03T18:03:24.956Z,24.20
2018-12-03T18:05:54.951Z,23.17
2018-12-03T18:08:25.096Z,24.67
2018-12-03T18:10:55.111Z,27.80
2018-12-03T18:19:10.162Z,22.60
2018-12-03T18:21:59.145Z,29.10
2018-12-03T18:27:48.975Z,21.50
2018-12-03T18:30:19.017Z,28.37
2018-12-03T18:32:49.038Z,23.70
2018-12-03T18:35:19.200Z,23.53
2018-12-03T18:37:49.284Z,26.77
2018-12-03T18:40:19.293Z,26.23
2018-12-03T18:42:49.457Z,28.90
2018-12-03T18:45:19.509Z,30.00
2018-12-03T18:47:49.769Z,27.50
2018-12-03T18:50:39.408Z,24.83
2018-12-03T18:53:28.875Z,24.43
2018-12-03T18:55:58.964Z,29.03
2018-12-03T18:58:53.223Z,24.77
2018-12-03T19:01:23.385Z,22.13
2018-12-03T19:03:54.013Z,26.85
2018-12-03T19:06:24.034Z,23.70
2018-12-03T19:08:54.248Z,24.80
2018-12-03T19:11:24.733Z,23.32
2018-12-03T19:13:55.534Z,22.97
2018-12-03T19:16:25.753Z,25.25
2018-12-03T19:18:55.853Z,28.17
2018-12-03T19:21:25.867Z,27.93
2018-12-03T19:26:49.384Z,23.87
2018-12-03T19:29:19.538Z,24.07
2018-12-03T19:31:49.543Z,26.73
2018-12-03T19:34:19.582Z,24.87
2018-12-03T19:36:49.694Z,22.50
2018-12-03T19:39:19.702Z,22.63
2018-12-03T19:41:49.732Z,26.00
2018-12-03T19:44:38.708Z,27.13
2018-12-03T19:47:08.869Z,25.40
2018-12-03T19:49:38.889Z,24.33
2018-12-03T19:55:14.046Z,27.97
2018-12-03T20:00:47.474Z,24.77
2018-12-03T20:03:17.577Z,22.87
2018-12-03T20:05:47.643Z,25.93
2018-12-03T20:08:17.723Z,21.20
2018-12-03T20:10:47.756Z,29.50
2018-12-03T20:16:20.363Z,22.77
2018-12-03T20:18:50.520Z,25.00
2018-12-03T20:21:25.853Z,30.90
2018-12-03T20:27:28.376Z,31.17
2018-12-03T20:30:36.116Z,27.23
2018-12-03T20:33:29.876Z,28.37
2018-12-03T20:36:37.535Z,25.12
2018-12-03T20:39:45.140Z,27.27
2018-12-03T20:42:15.327Z,31.83
2018-12-03T20:44:49.762Z,26.33
2018-12-03T20:47:40.781Z,24.77
2018-12-03T20:50:48.333Z,26.87
2018-12-03T20:53:59.419Z,22.33
2018-12-03T20:56:29.453Z,27.93
2018-12-03T20:58:59.449Z,28.62
2018-12-03T21:01:29.660Z,26.77
2018-12-03T21:03:59.657Z,24.20
2018-12-03T21:06:29.671Z,21.30
2018-12-03T21:08:59.888Z,24.25
2018-12-03T21:11:29.906Z,26.33
2018-12-03T21:13:59.938Z,23.80
2018-12-03T21:19:42.182Z,24.57
2018-12-03T21:22:12.338Z,26.10
2018-12-03T21:24:42.400Z,19.47
2018-12-03T21:27:12.399Z,22.73
2018-12-03T21:29:42.564Z,15.70
2018-12-03T21:32:12.602Z,18.60
2018-12-03T21:34:42.591Z,18.50
2018-12-03T21:37:12.696Z,19.97
2018-12-03T21:39:47.918Z,15.17
2018-12-03T21:42:14.648Z,11.97
2018-12-03T21:44:44.870Z,12.83
2018-12-03T21:47:14.961Z,11.67
2018-12-03T21:49:44.989Z,15.33
2018-12-03T21:52:54.856Z,10.53
2018-12-03T21:55:25.821Z,9.90
2018-12-03T21:57:57.485Z,11.40
2018-12-03T22:00:29.591Z,10.48
2018-12-03T22:02:59.651Z,12.37
2018-12-03T22:05:30.838Z,10.60
2018-12-03T22:08:01.697Z,7.95
2018-12-03T22:10:31.898Z,7.83
2018-12-03T22:13:02.014Z,7.37
2018-12-03T22:15:32.572Z,7.80
2018-12-03T22:18:02.635Z,9.07
2018-12-03T22:20:36.303Z,9.70
2018-12-03T22:23:06.358Z,9.13
2018-12-03T22:25:36.325Z,6.57
2018-12-03T22:28:06.334Z,8.53
2018-12-03T22:30:36.412Z,6.40
2018-12-03T22:33:06.470Z,6.50
2018-12-03T22:35:36.570Z,10.17
2018-12-03T22:38:06.628Z,6.03
2018-12-03T22:40:36.667Z,6.37
2018-12-03T22:43:06.782Z,8.60
2018-12-03T22:45:36.904Z,8.73
2018-12-03T22:48:06.928Z,8.07
2018-12-03T22:50:36.978Z,6.33
2018-12-03T22:53:07.019Z,7.20
2018-12-03T22:55:37.104Z,10.53
2018-12-03T22:58:26.084Z,5.50
2018-12-03T23:01:35.171Z,8.60
2018-12-03T23:06:47.844Z,7.67
2018-12-03T23:09:18.019Z,7.70
2018-12-03T23:14:37.044Z,7.83
2018-12-03T23:17:07.067Z,5.57
2018-12-03T23:19:37.093Z,7.37
2018-12-03T23:22:07.232Z,8.80
2018-12-03T23:24:37.200Z,8.50
2018-12-03T23:27:07.192Z,8.57
2018-12-03T23:33:10.461Z,5.83
2018-12-03T23:35:50.841Z,8.43
2018-12-03T23:38:20.910Z,5.40
2018-12-03T23:40:50.928Z,7.47
2018-12-03T23:43:20.975Z,6.97
2018-12-03T23:45:51.172Z,10.77
2018-12-03T23:48:21.290Z,8.93
2018-12-03T23:50:51.326Z,7.77
2018-12-03T23:53:40.263Z,9.10
2018-12-03T23:56:10.440Z,7.30
